Decoded Metar for KSPA (SPARTANBURG VOR in SC, USA) (IATA:SPA) | Meteo·Mobile Aviation Weather
aviador You're here:

KSPA Decoded Metar

SPARTANBURG VOR in SC, USA
Report Time2019-05-22 19:15:00
UTC Time2019-05-22 19:14:46
Flight Rules mvfr MVFR
Wind040° at 09 kt
W.Decomp.*RWY 05: 9.0 kt HW 0.8 kt LCW
Visibility9999 m
Phenomena:N/A
Clouds:Overcast 014 Hf
Expected CloudBase > 2,000 ft AGL from Temp-Dew spread
Ceiling1,400 ft
Temp22°C (ISA +9)
Dew Point17°C (73% RH)
AAT21.1°C
QNH1023 hPa
Density Alt1,965 ft
Elevation994 ft
Report Wrong Elevation
Raw Report
METAR KSPA 221915Z AUTO 04009KT 10SM OVC014 22/17 A3021 RMK AO2=

Extra information for KSPA:More info

Metar Taf Metar & Taf Last 4 Metars F.Rules Stats Wind Profile Meteogram Temp Stats Airport Information Weather charts Add Link Nearby VenuesMetar ALERT Operation Metar Decoded Social comments

AIRNAV info for KSPA